Time;durP1;ratioP1;P1;durP2;ratioP2;P2;SDS_P1;SDS_P2;PMS_P1;PMS_P2;Temp;Humidity;BMP_temperature;BMP_pressure;BME280_temperature;BME280_humidity;BME280_pressure;Samples;Min_cycle;Max_cycle;Signal;HPM_P1;HPM_P2
2021/09/25 00:00:14;;;;;;;17.50;10.98;;;;;;;10.27;81.41;99938.92;1744406;82;21371;-75
2021/09/25 00:02:41;;;;;;;14.87;11.22;;;;;;;10.23;81.59;99939.23;1744381;81;20932;-74
2021/09/25 00:05:09;;;;;;;14.38;10.75;;;;;;;10.17;81.81;99936.55;1744385;80;22256;-74
2021/09/25 00:07:36;;;;;;;13.03;10.80;;;;;;;10.13;81.95;99935.92;1744363;81;20873;-76
2021/09/25 00:10:05;;;;;;;13.38;10.65;;;;;;;10.11;82.04;99929.94;1744653;81;20912;-76
2021/09/25 00:12:31;;;;;;;13.95;10.80;;;;;;;10.09;82.12;99929.69;1744650;81;20917;-76
2021/09/25 00:14:58;;;;;;;13.13;10.63;;;;;;;10.08;82.17;99931.48;1744970;81;20921;-75
2021/09/25 00:17:25;;;;;;;11.45;9.58;;;;;;;10.09;82.24;99931.00;1744619;81;21533;-76
2021/09/25 00:19:54;;;;;;;14.73;10.70;;;;;;;10.09;82.24;99941.03;1744864;80;20874;-76
2021/09/25 00:22:21;;;;;;;11.50;9.30;;;;;;;10.09;82.17;99937.55;1744588;81;21435;-77
2021/09/25 00:24:48;;;;;;;11.00;9.23;;;;;;;10.10;82.12;99944.48;1744807;81;20949;-76
2021/09/25 00:27:14;;;;;;;14.03;10.88;;;;;;;10.11;82.10;99944.83;1744799;80;20847;-76
2021/09/25 00:29:41;;;;;;;15.72;10.28;;;;;;;10.08;82.04;99941.95;1744894;81;21480;-75
2021/09/25 00:32:08;;;;;;;13.50;9.95;;;;;;;10.08;82.04;99947.67;1744673;82;21581;-75
2021/09/25 00:34:35;;;;;;;12.65;9.73;;;;;;;10.06;81.99;99945.63;1744923;81;20909;-74
2021/09/25 00:37:02;;;;;;;11.12;8.73;;;;;;;10.05;82.00;99951.80;1744468;81;20936;-76
2021/09/25 00:39:29;;;;;;;13.08;9.70;;;;;;;10.04;81.99;99948.83;1744774;81;20957;-75
2021/09/25 00:41:56;;;;;;;12.10;9.33;;;;;;;10.04;81.95;99943.59;1745000;82;21471;-75
2021/09/25 00:44:23;;;;;;;12.58;9.78;;;;;;;10.03;81.92;99949.30;1744568;82;20870;-75
2021/09/25 00:46:50;;;;;;;12.05;9.90;;;;;;;10.02;81.93;99953.33;1745591;82;20948;-75
2021/09/25 00:49:19;;;;;;;13.03;9.75;;;;;;;10.01;81.89;99949.88;1746509;82;21027;-74
2021/09/25 00:51:47;;;;;;;13.62;9.73;;;;;;;9.98;81.89;99950.55;1753449;81;20999;-75
2021/09/25 00:54:15;;;;;;;12.88;10.48;;;;;;;9.95;81.80;99946.36;1759720;81;21112;-72
2021/09/25 00:56:43;;;;;;;11.78;9.03;;;;;;;9.91;81.63;99947.51;1759839;81;21378;-77
2021/09/25 00:59:11;;;;;;;15.50;9.85;;;;;;;9.86;81.62;99949.13;1758226;80;21417;-75
2021/09/25 01:01:39;;;;;;;13.93;9.03;;;;;;;9.81;81.67;99951.71;1757806;81;20971;-76
2021/09/25 01:04:06;;;;;;;11.43;8.68;;;;;;;9.75;81.79;99952.95;1758050;80;21033;-77
2021/09/25 01:06:33;;;;;;;10.95;9.30;;;;;;;9.70;81.94;99951.95;1757881;81;21529;-75
2021/09/25 01:09:00;;;;;;;12.80;9.35;;;;;;;9.67;82.06;99959.16;1757879;81;20944;-76
2021/09/25 01:11:27;;;;;;;17.42;9.45;;;;;;;9.64;82.22;99960.20;1757887;81;21018;-76
2021/09/25 01:13:54;;;;;;;13.58;9.68;;;;;;;9.64;82.34;99967.23;1741371;81;21438;-76
2021/09/25 01:16:22;;;;;;;13.68;10.40;;;;;;;9.64;82.45;99979.84;1757791;81;21315;-75
2021/09/25 01:18:49;;;;;;;15.20;10.20;;;;;;;9.65;82.52;99983.30;1758311;81;21564;-75
2021/09/25 01:21:16;;;;;;;10.88;9.50;;;;;;;9.67;82.50;99986.65;1757806;81;20877;-75
2021/09/25 01:23:43;;;;;;;11.15;9.73;;;;;;;9.67;82.50;99987.52;1757530;80;20849;-75
2021/09/25 01:26:10;;;;;;;13.55;10.70;;;;;;;9.68;82.50;99989.66;1757765;80;20940;-76
2021/09/25 01:28:39;;;;;;;14.10;11.40;;;;;;;9.68;82.47;99993.10;1758052;81;20975;-75
2021/09/25 01:31:07;;;;;;;16.65;11.55;;;;;;;9.68;82.47;99998.34;1757619;81;21170;-75
2021/09/25 01:33:42;;;;;;;12.53;10.50;;;;;;;9.67;82.39;99999.30;1758153;80;21350;-76
2021/09/25 01:36:10;;;;;;;14.63;11.35;;;;;;;9.65;82.25;99998.55;1757506;81;20967;-75
2021/09/25 01:38:37;;;;;;;14.03;10.60;;;;;;;9.61;82.23;99997.55;1758273;81;20881;-75
2021/09/25 01:41:04;;;;;;;13.03;8.98;;;;;;;9.56;82.33;100007.02;1758047;81;20881;-75
2021/09/25 01:43:31;;;;;;;14.78;10.38;;;;;;;9.50;82.49;100002.17;1759151;81;21476;-74
2021/09/25 01:45:59;;;;;;;15.83;9.33;;;;;;;9.45;82.70;100002.48;1760185;80;20861;-74
2021/09/25 01:48:26;;;;;;;14.65;9.58;;;;;;;9.44;82.90;100010.42;1760858;81;20932;-73
2021/09/25 01:50:53;;;;;;;16.67;10.40;;;;;;;9.42;82.97;100010.98;1760459;80;20872;-72
2021/09/25 01:53:21;;;;;;;11.60;8.78;;;;;;;9.39;83.09;100010.72;1759165;81;20964;-72
2021/09/25 01:55:50;;;;;;;16.07;10.08;;;;;;;9.38;83.20;100010.34;1758072;81;21505;-74
2021/09/25 01:58:16;;;;;;;13.60;9.68;;;;;;;9.38;83.22;100017.36;1757739;80;20916;-74
2021/09/25 02:00:43;;;;;;;17.10;9.65;;;;;;;9.38;83.04;100019.97;1757855;81;20936;-74
2021/09/25 02:03:11;;;;;;;18.52;10.55;;;;;;;9.36;82.97;100016.16;1757801;80;20980;-75
2021/09/25 02:05:38;;;;;;;10.70;9.58;;;;;;;9.35;82.83;100018.39;1758148;81;20864;-74
2021/09/25 02:08:05;;;;;;;18.27;10.72;;;;;;;9.34;83.19;100020.66;1757838;80;21548;-76
2021/09/25 02:10:32;;;;;;;12.70;9.35;;;;;;;9.38;83.33;100026.52;1757953;81;20951;-74
2021/09/25 02:12:59;;;;;;;14.05;9.45;;;;;;;9.40;83.28;100024.64;1757831;81;21406;-75
2021/09/25 02:15:26;;;;;;;19.65;10.95;;;;;;;9.41;83.17;100024.55;1758065;81;20904;-75
2021/09/25 02:17:53;;;;;;;18.00;10.58;;;;;;;9.43;83.11;100031.00;1757680;80;21429;-74
2021/09/25 02:20:21;;;;;;;19.98;10.93;;;;;;;9.44;82.98;100036.11;1758049;81;21469;-75
2021/09/25 02:22:48;;;;;;;19.20;10.68;;;;;;;9.44;82.73;100037.90;1757654;81;20995;-74
2021/09/25 02:25:15;;;;;;;17.48;10.65;;;;;;;9.45;82.50;100036.95;1758072;81;20892;-74
2021/09/25 02:27:42;;;;;;;15.50;11.00;;;;;;;9.45;82.33;100046.11;1757826;81;20896;-75
2021/09/25 02:30:15;;;;;;;16.50;9.98;;;;;;;9.46;82.18;100050.42;1757979;80;20971;-75
2021/09/25 02:32:42;;;;;;;16.75;11.25;;;;;;;9.46;82.11;100049.11;1757837;81;21128;-75
2021/09/25 02:35:11;;;;;;;20.02;13.30;;;;;;;9.46;82.04;100054.34;1757877;81;20920;-75
2021/09/25 02:37:38;;;;;;;19.02;12.90;;;;;;;9.45;81.98;100053.95;1757798;81;20995;-76
2021/09/25 02:40:06;;;;;;;19.62;10.98;;;;;;;9.45;81.96;100056.58;1758045;80;20876;-76
2021/09/25 02:42:33;;;;;;;21.55;11.38;;;;;;;9.42;81.82;100054.17;1757837;81;21385;-76
2021/09/25 02:45:00;;;;;;;16.42;12.13;;;;;;;9.38;81.59;100060.53;1757960;80;21498;-75
2021/09/25 02:47:27;;;;;;;16.40;10.65;;;;;;;9.31;81.43;100059.61;1757951;81;21213;-74
2021/09/25 02:49:54;;;;;;;19.12;11.20;;;;;;;9.26;81.39;100067.39;1757774;81;21342;-75
2021/09/25 02:52:21;;;;;;;20.75;12.75;;;;;;;9.20;81.66;100062.07;1750481;80;21004;-76
2021/09/25 02:54:48;;;;;;;17.23;11.70;;;;;;;9.20;82.17;100067.78;1744320;81;21031;-75
2021/09/25 02:57:15;;;;;;;21.40;12.70;;;;;;;9.23;82.41;100069.74;1744748;82;22153;-74
2021/09/25 02:59:42;;;;;;;21.42;13.28;;;;;;;9.28;82.48;100068.14;1744288;81;20937;-75
2021/09/25 03:02:11;;;;;;;22.02;12.35;;;;;;;9.31;82.50;100073.17;1744721;81;21065;-75
2021/09/25 03:04:38;;;;;;;16.50;10.30;;;;;;;9.37;82.43;100079.33;1744488;81;21035;-76
2021/09/25 03:07:07;;;;;;;23.47;14.53;;;;;;;9.42;82.40;100081.64;1744869;81;20878;-75
2021/09/25 03:09:34;;;;;;;21.57;13.50;;;;;;;9.44;82.30;100084.53;1744699;81;22176;-74
2021/09/25 03:12:01;;;;;;;22.55;13.80;;;;;;;9.46;82.06;100080.52;1744761;82;20925;-76
2021/09/25 03:14:28;;;;;;;19.10;11.97;;;;;;;9.48;81.90;100089.11;1744566;81;21008;-76
2021/09/25 03:16:55;;;;;;;22.77;11.90;;;;;;;9.49;81.70;100090.34;1744627;82;20968;-75
2021/09/25 03:19:22;;;;;;;18.73;11.43;;;;;;;9.49;81.62;100089.47;1744515;81;20901;-74
2021/09/25 03:21:48;;;;;;;20.88;13.43;;;;;;;9.50;81.49;100089.86;1744594;81;21109;-75
2021/09/25 03:24:15;;;;;;;22.67;11.63;;;;;;;9.49;81.53;100085.55;1744641;82;20908;-75
2021/09/25 03:26:42;;;;;;;17.73;11.33;;;;;;;9.53;81.50;100099.64;1744786;82;20901;-74
2021/09/25 03:29:10;;;;;;;18.50;11.73;;;;;;;9.57;81.42;100100.78;1744514;82;20932;-76
2021/09/25 03:31:37;;;;;;;21.70;12.82;;;;;;;9.61;81.34;100104.41;1744356;82;20944;-75
2021/09/25 03:34:04;;;;;;;20.02;13.25;;;;;;;9.64;81.30;100104.20;1744399;80;21488;-75
2021/09/25 03:36:30;;;;;;;20.80;14.03;;;;;;;9.68;81.21;100116.16;1744330;81;20929;-76
2021/09/25 03:38:57;;;;;;;19.37;13.65;;;;;;;9.70;80.95;100120.00;1744483;80;20932;-75
2021/09/25 03:41:24;;;;;;;17.12;13.50;;;;;;;9.70;80.78;100120.00;1744485;80;20929;-76
2021/09/25 03:43:51;;;;;;;19.87;13.45;;;;;;;9.68;80.56;100122.70;1744020;81;21116;-75
2021/09/25 03:46:19;;;;;;;27.55;14.13;;;;;;;9.65;80.51;100130.77;1744360;81;21536;-74
2021/09/25 03:48:46;;;;;;;16.82;13.38;;;;;;;9.61;80.50;100133.67;1744686;82;21410;-77
2021/09/25 03:51:13;;;;;;;18.35;12.28;;;;;;;9.57;80.46;100129.57;1744373;81;20874;-75
2021/09/25 03:53:40;;;;;;;23.55;12.88;;;;;;;9.54;80.51;100140.60;1757086;80;20964;-75
2021/09/25 03:56:08;;;;;;;18.62;12.82;;;;;;;9.51;80.62;100142.09;1757940;80;20857;-79
2021/09/25 03:58:36;;;;;;;24.63;14.05;;;;;;;9.50;80.74;100150.89;1757939;80;21124;-76
2021/09/25 04:01:03;;;;;;;19.37;12.25;;;;;;;9.50;80.76;100149.58;1757795;81;20995;-75
2021/09/25 04:06:02;;;;;;;18.57;12.85;;;;;;;9.59;80.82;100158.63;1816214;79;23235;-76
2021/09/25 04:08:30;;;;;;;24.82;14.87;;;;;;;9.57;80.81;100168.84;1789535;79;20915;-76
2021/09/25 04:10:56;;;;;;;18.95;12.15;;;;;;;9.57;80.72;100170.14;1789479;80;21654;-75
2021/09/25 04:13:23;;;;;;;17.82;12.65;;;;;;;9.58;80.62;100174.43;1789441;80;21338;-76
2021/09/25 04:15:50;;;;;;;17.98;11.60;;;;;;;9.58;80.52;100186.20;1789666;80;20959;-75
2021/09/25 04:18:17;;;;;;;19.23;10.35;;;;;;;9.57;80.52;100178.83;1789492;80;20940;-75
2021/09/25 04:20:44;;;;;;;20.70;11.53;;;;;;;9.59;80.57;100190.52;1787625;80;21029;-75
2021/09/25 04:23:11;;;;;;;17.32;11.33;;;;;;;9.62;80.62;100189.84;1787446;79;21582;-75
2021/09/25 04:25:37;;;;;;;16.73;11.18;;;;;;;9.66;80.72;100188.72;1787448;80;20935;-75
2021/09/25 04:28:06;;;;;;;17.85;10.82;;;;;;;9.72;80.79;100188.81;1787088;80;20904;-77
2021/09/25 04:30:35;;;;;;;20.45;10.25;;;;;;;9.79;80.78;100192.72;1787055;80;20841;-80
2021/09/25 04:33:03;;;;;;;19.37;12.18;;;;;;;9.88;80.71;100190.81;1787134;80;20876;-79
2021/09/25 04:35:29;;;;;;;24.05;12.90;;;;;;;9.97;80.74;100194.62;1787387;79;21100;-80
2021/09/25 04:37:56;;;;;;;21.07;12.18;;;;;;;10.11;80.70;100197.66;1787193;80;21017;-81
2021/09/25 04:40:24;;;;;;;23.18;13.03;;;;;;;10.24;80.54;100195.09;1787325;80;20895;-81
2021/09/25 04:42:50;;;;;;;24.12;13.15;;;;;;;10.38;80.31;100205.52;1787225;80;20958;-80
2021/09/25 04:45:17;;;;;;;21.55;14.78;;;;;;;10.57;80.23;100205.99;1787470;80;20912;-80
2021/09/25 04:47:45;;;;;;;20.37;12.98;;;;;;;10.80;80.14;100199.66;1787139;80;21131;-78
2021/09/25 04:50:13;;;;;;;17.23;11.80;;;;;;;11.06;79.79;100201.00;1787763;80;20931;-79
2021/09/25 04:52:41;;;;;;;21.73;13.25;;;;;;;11.34;79.50;100191.58;1789485;80;20896;-81
2021/09/25 04:55:08;;;;;;;23.12;12.45;;;;;;;11.70;78.98;100198.28;1790751;78;20904;-79
2021/09/25 04:57:35;;;;;;;22.85;12.18;;;;;;;12.07;78.39;100200.89;1789415;80;20870;-80
2021/09/25 05:00:04;;;;;;;16.05;11.93;;;;;;;12.41;77.40;100197.46;1790318;80;21471;-80
2021/09/25 05:02:31;;;;;;;20.55;11.33;;;;;;;12.70;76.25;100198.87;1788428;80;20868;-81
2021/09/25 05:04:58;;;;;;;17.52;11.40;;;;;;;12.94;75.06;100204.03;1779220;80;20904;-80
2021/09/25 05:07:25;;;;;;;15.00;11.25;;;;;;;13.13;74.23;100202.98;1769078;81;20927;-79
2021/09/25 05:09:53;;;;;;;23.92;12.23;;;;;;;13.35;73.42;100204.81;1768975;81;20865;-82
2021/09/25 05:12:20;;;;;;;15.15;9.30;;;;;;;13.47;72.35;100209.59;1769083;81;21139;-79
2021/09/25 05:14:47;;;;;;;21.87;10.18;;;;;;;13.48;71.73;100212.59;1768858;81;20975;-80
2021/09/25 05:17:14;;;;;;;18.80;10.98;;;;;;;13.45;71.60;100204.47;1768481;81;20912;-80
2021/09/25 05:19:41;;;;;;;19.17;10.25;;;;;;;13.50;71.79;100206.73;1768572;81;20920;-79
2021/09/25 05:22:09;;;;;;;23.40;14.47;;;;;;;13.67;72.01;100207.56;1768608;81;20916;-79
2021/09/25 05:24:36;;;;;;;28.27;18.12;;;;;;;13.84;71.35;100206.67;1768677;81;21051;-79
2021/09/25 05:27:04;;;;;;;25.40;19.10;;;;;;;13.89;70.50;100205.81;1768306;81;20853;-79
2021/09/25 05:29:31;;;;;;;25.68;17.17;;;;;;;13.87;70.09;100209.91;1727206;83;20980;-79
2021/09/25 05:32:01;;;;;;;27.13;15.43;;;;;;;13.83;69.93;100215.07;1768454;81;20947;-78
2021/09/25 05:34:27;;;;;;;26.87;14.23;;;;;;;13.81;69.81;100223.58;1726873;83;20901;-79
2021/09/25 05:36:56;;;;;;;20.90;12.75;;;;;;;13.83;69.81;100224.78;1768365;81;22013;-79
2021/09/25 05:39:24;;;;;;;18.42;10.98;;;;;;;13.85;69.82;100219.74;1768596;81;20968;-76
2021/09/25 05:41:51;;;;;;;21.90;10.60;;;;;;;13.87;69.67;100227.05;1726669;83;21064;-75
2021/09/25 05:44:18;;;;;;;16.45;11.70;;;;;;;13.98;69.78;100235.39;1768407;80;21007;-76
2021/09/25 05:46:45;;;;;;;17.80;13.20;;;;;;;14.06;69.23;100240.06;1768429;81;21319;-75
2021/09/25 05:49:12;;;;;;;21.48;13.80;;;;;;;14.20;68.92;100250.31;1768700;81;21487;-74
2021/09/25 05:51:38;;;;;;;24.60;16.87;;;;;;;14.34;68.82;100269.00;1768450;81;21460;-77
2021/09/25 05:54:05;;;;;;;27.48;19.35;;;;;;;14.44;68.27;100275.18;1768593;81;20885;-75
2021/09/25 05:56:34;;;;;;;30.43;19.48;;;;;;;14.45;68.32;100278.65;1768367;81;20896;-74
2021/09/25 05:59:01;;;;;;;26.23;17.50;;;;;;;14.41;68.04;100286.48;1768399;81;20900;-76
2021/09/25 06:01:27;;;;;;;28.40;16.02;;;;;;;14.31;68.02;100283.73;1726983;83;21585;-76
2021/09/25 06:03:54;;;;;;;23.85;15.15;;;;;;;14.19;68.28;100295.30;1768568;81;20841;-76
2021/09/25 06:06:21;;;;;;;24.57;14.58;;;;;;;14.05;68.71;100291.97;1771832;80;22208;-75
2021/09/25 06:08:48;;;;;;;25.27;16.40;;;;;;;13.98;69.16;100296.52;1773070;79;20956;-75
2021/09/25 06:11:14;;;;;;;22.65;14.58;;;;;;;13.92;69.44;100303.58;1772914;81;20868;-75
2021/09/25 06:13:42;;;;;;;24.57;15.58;;;;;;;13.87;69.68;100304.81;1772836;81;21172;-74
2021/09/25 06:16:08;;;;;;;28.62;19.42;;;;;;;13.82;69.77;100307.44;1772619;81;20960;-74
2021/09/25 06:18:35;;;;;;;27.32;21.17;;;;;;;13.76;69.87;100302.64;1772952;81;20973;-75
2021/09/25 06:21:02;;;;;;;26.52;15.93;;;;;;;13.69;69.94;100312.82;1772786;81;20971;-74
2021/09/25 06:23:29;;;;;;;23.42;15.55;;;;;;;13.64;70.17;100313.66;1772879;80;20967;-74
2021/09/25 06:25:55;;;;;;;22.27;14.78;;;;;;;13.60;70.54;100322.28;1772781;80;21476;-75
2021/09/25 06:28:23;;;;;;;22.73;13.10;;;;;;;13.56;70.90;100331.41;1772814;81;20908;-75
2021/09/25 06:30:49;;;;;;;21.25;13.55;;;;;;;13.56;71.15;100339.30;1772626;81;20967;-74
2021/09/25 06:33:16;;;;;;;22.22;16.75;;;;;;;13.55;71.18;100347.31;1772991;81;20916;-76
2021/09/25 06:35:46;;;;;;;29.20;19.07;;;;;;;13.47;71.49;100342.63;1772727;80;20876;-75
2021/09/25 06:38:13;;;;;;;31.93;20.08;;;;;;;13.43;71.73;100342.03;1772726;81;21174;-77
2021/09/25 06:40:39;;;;;;;32.60;21.35;;;;;;;13.42;71.71;100352.68;1772753;81;21428;-77
2021/09/25 06:43:06;;;;;;;28.67;19.92;;;;;;;13.39;71.90;100355.08;1772778;81;20880;-76
2021/09/25 06:45:33;;;;;;;26.95;14.80;;;;;;;13.36;72.03;100356.63;1772758;81;20919;-78
2021/09/25 06:48:00;;;;;;;28.65;13.95;;;;;;;13.30;71.91;100364.99;1772670;81;21377;-78
2021/09/25 06:50:27;;;;;;;20.35;13.45;;;;;;;13.21;72.31;100373.56;1772741;79;21116;-79
2021/09/25 06:52:54;;;;;;;22.30;14.03;;;;;;;13.12;72.56;100383.47;1772604;81;20876;-77
2021/09/25 06:55:21;;;;;;;23.85;13.60;;;;;;;13.06;72.99;100384.27;1772613;80;21502;-77
2021/09/25 06:57:49;;;;;;;19.87;10.95;;;;;;;13.05;73.26;100391.81;1772753;79;20908;-77
2021/09/25 07:00:18;;;;;;;13.88;10.55;;;;;;;13.06;73.33;100399.23;1772816;80;21309;-77
2021/09/25 07:02:45;;;;;;;12.30;7.10;;;;;;;13.04;73.41;100402.45;1772864;79;21347;-76
2021/09/25 07:05:12;;;;;;;12.05;6.37;;;;;;;12.99;73.62;100398.00;1772592;80;21005;-79
2021/09/25 07:07:39;;;;;;;6.60;5.95;;;;;;;12.95;73.89;100395.23;1772476;80;20913;-79
2021/09/25 07:10:08;;;;;;;6.62;5.75;;;;;;;12.98;74.01;100402.44;1772710;79;20916;-76
2021/09/25 07:12:36;;;;;;;6.75;5.05;;;;;;;13.05;74.06;100398.39;1772770;80;20987;-77
2021/09/25 07:15:04;;;;;;;4.03;3.37;;;;;;;13.12;74.14;100401.41;1772820;81;22698;-78
2021/09/25 07:17:32;;;;;;;4.33;3.87;;;;;;;13.20;74.11;100400.34;1772634;80;21405;-78
2021/09/25 07:19:59;;;;;;;5.95;3.25;;;;;;;13.33;74.20;100404.73;1772673;81;20995;-78
2021/09/25 07:22:26;;;;;;;2.98;2.72;;;;;;;13.62;74.14;100405.16;1772603;81;20928;-81
2021/09/25 07:24:55;;;;;;;3.00;2.12;;;;;;;14.07;74.19;100406.06;1772772;80;20932;-78
2021/09/25 07:27:24;;;;;;;1.92;1.75;;;;;;;14.75;73.37;100403.36;1772696;81;21145;-79
2021/09/25 07:29:53;;;;;;;2.85;1.72;;;;;;;15.77;69.11;100406.87;1772206;79;20951;-79
2021/09/25 07:32:21;;;;;;;3.35;1.75;;;;;;;15.77;69.11;100406.87;1772927;81;20927;-81
2021/09/25 07:34:48;;;;;;;1.90;1.70;;;;;;;16.00;67.97;100404.89;1772697;79;21350;-77
2021/09/25 07:37:15;;;;;;;1.87;1.20;;;;;;;16.12;67.05;100414.42;1773039;81;20833;-80
2021/09/25 07:39:42;;;;;;;3.75;1.52;;;;;;;16.17;66.33;100422.79;1772830;81;21792;-78
2021/09/25 07:42:08;;;;;;;1.62;1.00;;;;;;;16.20;66.04;100423.83;1772973;81;20967;-80
2021/09/25 07:44:35;;;;;;;2.05;1.20;;;;;;;16.19;65.34;100426.14;1772685;81;20908;-79
2021/09/25 07:47:02;;;;;;;5.03;1.00;;;;;;;16.16;64.96;100434.33;1773261;81;20912;-79
2021/09/25 07:49:30;;;;;;;1.55;1.45;;;;;;;16.06;65.11;100432.14;1772815;81;20972;-80
2021/09/25 07:51:57;;;;;;;1.92;1.37;;;;;;;15.93;65.12;100431.86;1773000;81;21553;-79
2021/09/25 07:54:24;;;;;;;2.80;1.52;;;;;;;15.96;65.23;100430.75;1772723;79;21005;-79
2021/09/25 07:56:51;;;;;;;2.27;0.70;;;;;;;16.31;65.40;100425.06;1773013;81;20972;-80
2021/09/25 07:59:17;;;;;;;1.45;0.60;;;;;;;16.70;64.24;100419.87;1772660;81;20939;-79
2021/09/25 08:01:45;;;;;;;1.92;0.95;;;;;;;17.02;62.48;100414.85;1772851;81;20943;-81
2021/09/25 08:04:12;;;;;;;1.00;0.62;;;;;;;17.54;61.95;100412.74;1774126;80;21106;-81
2021/09/25 08:06:39;;;;;;;0.72;0.65;;;;;;;18.33;60.45;100409.36;1774322;79;21492;-78
2021/09/25 08:09:06;;;;;;;1.12;0.85;;;;;;;19.18;57.87;100407.27;1774702;81;20876;-82
2021/09/25 08:11:33;;;;;;;1.57;0.60;;;;;;;19.88;56.16;100405.98;1775036;79;20960;-81
2021/09/25 08:13:59;;;;;;;0.50;0.50;;;;;;;20.25;54.90;100408.80;1774281;81;20896;-80
2021/09/25 08:16:26;;;;;;;1.55;0.70;;;;;;;20.28;53.19;100415.98;1773097;79;21656;-80
2021/09/25 08:18:53;;;;;;;2.00;0.60;;;;;;;20.12;53.00;100425.25;1773031;81;20888;-81
2021/09/25 08:21:20;;;;;;;2.70;1.20;;;;;;;19.75;52.97;100428.19;1773156;80;20940;-80
2021/09/25 08:23:47;;;;;;;2.17;0.80;;;;;;;19.30;54.39;100431.78;1772738;79;20919;-81
2021/09/25 08:26:14;;;;;;;1.60;0.85;;;;;;;18.81;55.29;100428.20;1773082;80;21005;-79
2021/09/25 08:28:41;;;;;;;1.00;0.95;;;;;;;18.36;56.24;100433.81;1772837;80;21133;-79
2021/09/25 08:31:08;;;;;;;2.02;1.47;;;;;;;17.88;57.29;100438.80;1772625;79;20876;-78
2021/09/25 08:33:35;;;;;;;9.85;1.80;;;;;;;17.49;58.71;100445.95;1773056;81;20908;-78
2021/09/25 08:36:02;;;;;;;2.25;1.60;;;;;;;17.11;60.07;100451.61;1772782;79;20916;-79
2021/09/25 08:38:30;;;;;;;6.05;2.17;;;;;;;16.78;61.11;100451.83;1772030;79;21021;-79
2021/09/25 08:40:59;;;;;;;1.92;1.32;;;;;;;16.51;61.95;100459.05;1772700;81;21094;-79
2021/09/25 08:43:27;;;;;;;1.57;1.22;;;;;;;16.27;62.96;100459.37;1772630;81;20879;-78
2021/09/25 08:46:02;;;;;;;1.85;1.55;;;;;;;16.00;63.67;100463.08;1772887;81;20884;-79
2021/09/25 08:48:29;;;;;;;2.02;1.52;;;;;;;15.73;64.93;100462.64;1772606;80;20932;-80
2021/09/25 08:50:56;;;;;;;4.00;1.72;;;;;;;15.58;65.65;100469.17;1773201;81;20904;-79
2021/09/25 08:53:23;;;;;;;3.02;1.85;;;;;;;15.44;66.07;100464.21;1773050;81;21511;-80
2021/09/25 08:55:50;;;;;;;1.55;1.30;;;;;;;15.33;66.66;100463.77;1773029;81;20963;-80
2021/09/25 08:58:17;;;;;;;3.67;1.47;;;;;;;15.29;67.08;100466.31;1773214;79;20880;-79
2021/09/25 09:00:50;;;;;;;1.45;1.35;;;;;;;15.31;66.50;100477.59;1773160;81;21302;-80
2021/09/25 09:03:28;;;;;;;2.08;1.45;;;;;;;15.31;66.50;100477.59;1773343;81;20841;-80
2021/09/25 09:06:13;;;;;;;1.55;1.05;;;;;;;15.47;66.99;100481.13;1771410;79;21118;-79
2021/09/25 09:08:41;;;;;;;1.60;1.20;;;;;;;15.70;67.29;100483.19;1757788;81;20979;-79
2021/09/25 09:11:08;;;;;;;2.52;1.05;;;;;;;15.98;66.21;100488.81;1768866;81;20920;-79
2021/09/25 09:13:37;;;;;;;4.47;1.90;;;;;;;16.09;64.44;100485.60;1768449;81;20876;-80
2021/09/25 09:16:05;;;;;;;5.60;3.40;;;;;;;16.12;63.72;100481.88;1768905;81;20840;-81
2021/09/25 09:18:35;;;;;;;6.53;5.22;;;;;;;16.14;63.43;100492.69;1769685;81;21135;-80
2021/09/25 09:21:17;;;;;;;7.42;4.87;;;;;;;16.26;63.30;100492.59;1744285;81;20869;-81
2021/09/25 09:23:52;;;;;;;12.78;8.48;;;;;;;16.27;62.26;100505.67;1768686;81;21358;-80
2021/09/25 09:26:26;;;;;;;12.13;9.98;;;;;;;16.27;62.26;100505.67;1769041;81;20947;-80
2021/09/25 09:28:54;;;;;;;19.00;12.43;;;;;;;16.18;62.33;100519.70;1766922;81;20924;-80
2021/09/25 09:31:21;;;;;;;17.65;11.12;;;;;;;16.11;62.65;100523.35;1769510;81;21358;-81
2021/09/25 09:33:54;;;;;;;9.30;7.20;;;;;;;16.02;63.26;100524.63;1768479;81;20968;-80
2021/09/25 09:36:29;;;;;;;3.62;3.15;;;;;;;15.88;64.03;100531.08;1768784;81;20939;-80
2021/09/25 09:39:15;;;;;;;4.70;2.90;;;;;;;15.55;64.47;100532.39;1768366;81;20888;-79
2021/09/25 09:41:49;;;;;;;1.85;1.62;;;;;;;15.41;65.40;100539.30;1768757;81;20979;-81
2021/09/25 09:44:21;;;;;;;5.00;2.10;;;;;;;15.41;65.40;100539.30;1768772;81;21133;-80
2021/09/25 09:46:52;;;;;;;1.77;1.32;;;;;;;15.27;65.54;100544.39;1768562;81;21472;-79
2021/09/25 09:49:23;;;;;;;2.98;1.20;;;;;;;15.18;65.61;100546.92;1768319;81;20916;-80
2021/09/25 09:51:58;;;;;;;3.55;1.65;;;;;;;15.09;66.04;100546.69;1767467;81;20956;-78
2021/09/25 09:54:40;;;;;;;1.30;1.30;;;;;;;15.06;66.62;100543.47;1768556;81;20884;-80
2021/09/25 09:57:13;;;;;;;1.70;1.60;;;;;;;15.02;66.75;100538.08;1768726;81;21108;-79
2021/09/25 09:59:41;;;;;;;1.37;1.12;;;;;;;14.95;67.63;100547.45;1768254;81;20880;-80
2021/09/25 10:02:08;;;;;;;1.57;1.10;;;;;;;14.90;67.78;100553.94;1768704;81;21338;-79
2021/09/25 10:04:36;;;;;;;0.98;0.98;;;;;;;14.89;68.49;100552.72;1768364;81;20893;-76
2021/09/25 10:07:04;;;;;;;1.50;1.10;;;;;;;14.95;68.41;100554.89;1771470;80;20924;-74
2021/09/25 10:09:34;;;;;;;1.25;1.10;;;;;;;15.04;68.21;100557.28;1772719;79;21580;-76
2021/09/25 10:12:07;;;;;;;2.35;0.90;;;;;;;15.15;68.17;100549.82;1772903;81;20944;-74
2021/09/25 10:14:36;;;;;;;1.70;0.93;;;;;;;15.27;67.66;100543.08;1772662;81;20881;-75
2021/09/25 10:17:06;;;;;;;2.25;1.20;;;;;;;15.46;66.57;100547.69;1773105;81;20857;-73
2021/09/25 10:19:35;;;;;;;0.72;0.70;;;;;;;15.62;65.59;100559.64;1772863;79;20971;-77
2021/09/25 10:22:15;;;;;;;0.85;0.80;;;;;;;15.91;64.56;100555.45;1773197;81;21737;-76
2021/09/25 10:25:05;;;;;;;0.90;0.75;;;;;;;16.19;64.46;100560.25;1772596;81;20947;-78
2021/09/25 10:27:33;;;;;;;6.12;1.20;;;;;;;16.45;63.25;100561.52;1772993;80;20960;-75
2021/09/25 10:30:03;;;;;;;3.37;1.07;;;;;;;16.57;62.71;100565.73;1773821;81;20952;-75
2021/09/25 10:32:32;;;;;;;4.33;0.95;;;;;;;16.80;62.35;100556.80;1774811;79;20975;-75
2021/09/25 10:35:15;;;;;;;1.50;1.40;;;;;;;17.13;62.17;100568.90;1773360;81;21541;-75
2021/09/25 10:37:49;;;;;;;3.42;0.45;;;;;;;17.64;62.18;100551.94;1771872;81;20943;-79
2021/09/25 10:40:24;;;;;;;1.35;0.70;;;;;;;18.23;60.39;100554.92;1772994;79;27974;-76
2021/09/25 10:42:56;;;;;;;4.83;0.80;;;;;;;18.72;57.43;100552.10;1773049;81;20975;-75
2021/09/25 10:45:26;;;;;;;1.15;1.00;;;;;;;19.20;55.44;100546.20;1772883;79;20923;-76
2021/09/25 10:48:25;;;;;;;2.27;1.40;;;;;;;19.67;53.96;100548.64;1773248;81;21113;-76
2021/09/25 10:51:11;;;;;;;3.70;1.57;;;;;;;20.16;52.78;100545.06;1772673;81;21197;-76
2021/09/25 10:53:38;;;;;;;1.92;1.42;;;;;;;20.75;50.45;100535.10;1772468;80;20916;-77
2021/09/25 10:56:07;;;;;;;1.25;1.15;;;;;;;21.27;50.88;100529.58;1772743;81;21159;-77
2021/09/25 10:58:36;;;;;;;1.00;0.90;;;;;;;21.58;49.12;100525.81;1773067;81;20833;-80
2021/09/25 11:01:20;;;;;;;3.67;1.20;;;;;;;21.87;47.36;100529.30;1772736;81;21145;-80
2021/09/25 11:04:12;;;;;;;1.65;0.57;;;;;;;21.90;47.53;100529.50;1772974;81;20888;-77
2021/09/25 11:06:53;;;;;;;1.70;0.80;;;;;;;21.92;46.84;100520.78;1772690;80;20935;-76
2021/09/25 11:09:41;;;;;;;1.85;1.00;;;;;;;21.96;46.34;100518.12;1772831;81;20939;-77
2021/09/25 11:12:15;;;;;;;1.30;1.20;;;;;;;21.94;46.10;100523.65;1772767;81;20876;-77
2021/09/25 11:14:55;;;;;;;2.55;0.80;;;;;;;21.97;46.64;100527.81;1772865;81;21514;-76
2021/09/25 11:17:28;;;;;;;1.47;0.75;;;;;;;21.89;47.25;100533.98;1771727;81;20872;-77
2021/09/25 11:20:01;;;;;;;2.33;0.98;;;;;;;21.73;45.91;100532.66;1774493;81;20907;-76
2021/09/25 11:22:38;;;;;;;;;;;;;;;21.48;45.96;100538.49;1776594;80;20892;-77
2021/09/25 11:25:12;;;;;;;2.27;0.82;;;;;;;21.21;46.06;100543.56;1774550;79;20099;-77
2021/09/25 11:27:51;;;;;;;1.62;0.78;;;;;;;20.81;47.01;100552.63;1773707;80;21549;-77